sensor_id;sensor_type;location;lat;lon;timestamp;pressure;altitude;pressure_sealevel;temperature;humidity
61528;BME280;47395;42.032;-8.634;2022-10-03T00:02:50;101460.31;;;17.28;83.27
61528;BME280;47395;42.032;-8.634;2022-10-03T00:07:52;101466.41;;;17.30;83.28
61528;BME280;47395;42.032;-8.634;2022-10-03T00:13:36;101460.03;;;17.33;82.92
61528;BME280;47395;42.032;-8.634;2022-10-03T00:16:18;101465.34;;;17.33;82.63
61528;BME280;47395;42.032;-8.634;2022-10-03T00:23:49;101459.13;;;17.19;83.43
61528;BME280;47395;42.032;-8.634;2022-10-03T00:32:01;101462.47;;;17.08;83.60
61528;BME280;47395;42.032;-8.634;2022-10-03T00:34:28;101461.72;;;17.06;83.68
61528;BME280;47395;42.032;-8.634;2022-10-03T00:36:47;101448.41;;;17.06;83.64
61528;BME280;47395;42.032;-8.634;2022-10-03T00:44:21;101447.38;;;16.94;84.06
61528;BME280;47395;42.032;-8.634;2022-10-03T00:56:12;101436.47;;;16.70;85.52
61528;BME280;47395;42.032;-8.634;2022-10-03T01:00:28;101433.34;;;16.63;85.73
61528;BME280;47395;42.032;-8.634;2022-10-03T01:03:06;101434.22;;;16.64;85.68
61528;BME280;47395;42.032;-8.634;2022-10-03T01:05:38;101434.78;;;16.69;85.43
61528;BME280;47395;42.032;-8.634;2022-10-03T01:08:19;101431.81;;;16.74;85.11
61528;BME280;47395;42.032;-8.634;2022-10-03T01:10:33;101428.50;;;16.70;84.83
61528;BME280;47395;42.032;-8.634;2022-10-03T01:13:10;101440.19;;;16.67;84.97
61528;BME280;47395;42.032;-8.634;2022-10-03T01:16:28;101440.88;;;16.56;85.05
61528;BME280;47395;42.032;-8.634;2022-10-03T01:18:41;101439.44;;;16.51;85.28
61528;BME280;47395;42.032;-8.634;2022-10-03T01:21:40;101436.13;;;16.47;85.32
61528;BME280;47395;42.032;-8.634;2022-10-03T01:28:46;101442.22;;;16.35;86.15
61528;BME280;47395;42.032;-8.634;2022-10-03T01:31:11;101445.81;;;16.34;86.33
61528;BME280;47395;42.032;-8.634;2022-10-03T01:36:42;101439.94;;;16.43;85.69
61528;BME280;47395;42.032;-8.634;2022-10-03T01:38:55;101438.03;;;16.30;86.13
61528;BME280;47395;42.032;-8.634;2022-10-03T01:41:10;101425.28;;;16.36;86.11
61528;BME280;47395;42.032;-8.634;2022-10-03T01:44:00;101438.50;;;16.23;86.62
61528;BME280;47395;42.032;-8.634;2022-10-03T01:46:36;101435.75;;;16.39;86.23
61528;BME280;47395;42.032;-8.634;2022-10-03T01:49:01;101432.91;;;16.42;85.76
61528;BME280;47395;42.032;-8.634;2022-10-03T01:54:20;101429.97;;;16.32;85.98
61528;BME280;47395;42.032;-8.634;2022-10-03T01:56:59;101433.28;;;16.36;86.21
61528;BME280;47395;42.032;-8.634;2022-10-03T01:59:09;101425.28;;;16.36;86.12
61528;BME280;47395;42.032;-8.634;2022-10-03T02:06:27;101427.66;;;16.26;85.55
61528;BME280;47395;42.032;-8.634;2022-10-03T02:08:57;101421.50;;;16.25;85.55
61528;BME280;47395;42.032;-8.634;2022-10-03T02:11:05;101421.03;;;16.18;85.77
61528;BME280;47395;42.032;-8.634;2022-10-03T02:13:19;101421.22;;;16.30;85.44
61528;BME280;47395;42.032;-8.634;2022-10-03T02:15:33;101422.81;;;16.33;85.13
61528;BME280;47395;42.032;-8.634;2022-10-03T02:18:00;101428.13;;;16.33;84.59
61528;BME280;47395;42.032;-8.634;2022-10-03T02:25:01;101409.53;;;16.18;84.30
61528;BME280;47395;42.032;-8.634;2022-10-03T02:49:49;101392.69;;;15.88;84.67
61528;BME280;47395;42.032;-8.634;2022-10-03T02:57:24;101390.69;;;15.77;83.72
61528;BME280;47395;42.032;-8.634;2022-10-03T03:08:28;101388.38;;;15.57;85.06
61528;BME280;47395;42.032;-8.634;2022-10-03T03:11:15;101381.53;;;15.52;84.93
61528;BME280;47395;42.032;-8.634;2022-10-03T03:16:57;101382.47;;;15.51;84.88
61528;BME280;47395;42.032;-8.634;2022-10-03T03:19:41;101384.97;;;15.55;84.57
61528;BME280;47395;42.032;-8.634;2022-10-03T03:25:00;101382.84;;;15.45;83.87
61528;BME280;47395;42.032;-8.634;2022-10-03T03:27:48;101385.00;;;15.38;83.87
61528;BME280;47395;42.032;-8.634;2022-10-03T03:30:46;101379.13;;;15.33;83.91
61528;BME280;47395;42.032;-8.634;2022-10-03T03:35:47;101383.72;;;15.30;84.35
61528;BME280;47395;42.032;-8.634;2022-10-03T03:49:29;101375.56;;;15.18;86.11
61528;BME280;47395;42.032;-8.634;2022-10-03T03:52:11;101374.31;;;15.24;85.99
61528;BME280;47395;42.032;-8.634;2022-10-03T03:54:39;101367.22;;;15.24;85.35
61528;BME280;47395;42.032;-8.634;2022-10-03T04:10:59;101374.59;;;15.19;86.07
61528;BME280;47395;42.032;-8.634;2022-10-03T04:13:41;101366.91;;;15.14;86.12
61528;BME280;47395;42.032;-8.634;2022-10-03T04:16:17;101382.81;;;15.14;86.53
61528;BME280;47395;42.032;-8.634;2022-10-03T04:19:12;101384.91;;;15.09;86.11
61528;BME280;47395;42.032;-8.634;2022-10-03T04:27:00;101385.59;;;15.13;85.16
61528;BME280;47395;42.032;-8.634;2022-10-03T04:37:38;101382.59;;;15.03;84.70
61528;BME280;47395;42.032;-8.634;2022-10-03T04:45:30;101379.16;;;15.01;84.46
61528;BME280;47395;42.032;-8.634;2022-10-03T04:47:50;101375.34;;;14.91;85.03
61528;BME280;47395;42.032;-8.634;2022-10-03T04:50:12;101373.13;;;14.83;85.79
61528;BME280;47395;42.032;-8.634;2022-10-03T04:57:51;101383.75;;;14.83;86.05
61528;BME280;47395;42.032;-8.634;2022-10-03T05:00:21;101388.09;;;14.84;86.49
61528;BME280;47395;42.032;-8.634;2022-10-03T05:07:52;101391.19;;;14.92;87.07
61528;BME280;47395;42.032;-8.634;2022-10-03T05:09:59;101381.59;;;14.90;87.17
61528;BME280;47395;42.032;-8.634;2022-10-03T05:12:37;101377.13;;;14.90;87.23
61528;BME280;47395;42.032;-8.634;2022-10-03T05:15:25;101380.47;;;14.94;86.51
61528;BME280;47395;42.032;-8.634;2022-10-03T05:20:16;101377.66;;;14.81;86.31
61528;BME280;47395;42.032;-8.634;2022-10-03T05:25:23;101382.63;;;14.87;85.67
61528;BME280;47395;42.032;-8.634;2022-10-03T05:30:32;101385.25;;;14.71;86.19
61528;BME280;47395;42.032;-8.634;2022-10-03T05:35:53;101378.06;;;14.73;86.12
61528;BME280;47395;42.032;-8.634;2022-10-03T05:40:23;101383.78;;;14.65;85.16
61528;BME280;47395;42.032;-8.634;2022-10-03T05:48:08;101384.13;;;14.59;84.44
61528;BME280;47395;42.032;-8.634;2022-10-03T05:53:05;101388.06;;;14.52;85.10
61528;BME280;47395;42.032;-8.634;2022-10-03T05:55:28;101393.28;;;14.53;85.08
61528;BME280;47395;42.032;-8.634;2022-10-03T05:58:55;101395.06;;;14.53;84.80
61528;BME280;47395;42.032;-8.634;2022-10-03T06:05:34;101397.72;;;14.53;85.00
61528;BME280;47395;42.032;-8.634;2022-10-03T06:08:11;101402.09;;;14.54;85.52
61528;BME280;47395;42.032;-8.634;2022-10-03T06:10:48;101402.00;;;14.55;86.70
61528;BME280;47395;42.032;-8.634;2022-10-03T06:13:18;101402.34;;;14.49;87.59
61528;BME280;47395;42.032;-8.634;2022-10-03T06:16:03;101408.75;;;14.45;88.20
61528;BME280;47395;42.032;-8.634;2022-10-03T06:21:28;101409.28;;;14.68;87.46
61528;BME280;47395;42.032;-8.634;2022-10-03T06:24:14;101417.09;;;14.71;87.04
61528;BME280;47395;42.032;-8.634;2022-10-03T06:26:55;101411.88;;;14.69;86.83
61528;BME280;47395;42.032;-8.634;2022-10-03T06:43:47;101421.03;;;14.80;86.44
61528;BME280;47395;42.032;-8.634;2022-10-03T06:46:19;101416.41;;;14.83;85.88
61528;BME280;47395;42.032;-8.634;2022-10-03T06:54:07;101420.69;;;14.86;85.40
61528;BME280;47395;42.032;-8.634;2022-10-03T06:57:10;101431.63;;;15.12;85.29
61528;BME280;47395;42.032;-8.634;2022-10-03T07:08:15;101453.91;;;15.56;83.05
61528;BME280;47395;42.032;-8.634;2022-10-03T07:17:11;101456.56;;;16.17;80.55
61528;BME280;47395;42.032;-8.634;2022-10-03T07:40:30;101477.19;;;22.49;57.73
61528;BME280;47395;42.032;-8.634;2022-10-03T07:45:26;101476.97;;;23.92;53.33
61528;BME280;47395;42.032;-8.634;2022-10-03T07:50:47;101490.44;;;25.24;49.93
61528;BME280;47395;42.032;-8.634;2022-10-03T07:56:05;101489.50;;;26.41;46.73
61528;BME280;47395;42.032;-8.634;2022-10-03T08:01:16;101497.19;;;27.22;44.40
61528;BME280;47395;42.032;-8.634;2022-10-03T08:12:19;101502.94;;;28.67;40.90
61528;BME280;47395;42.032;-8.634;2022-10-03T08:16:35;101509.00;;;28.78;40.03
61528;BME280;47395;42.032;-8.634;2022-10-03T08:21:52;101516.81;;;29.60;38.99
61528;BME280;47395;42.032;-8.634;2022-10-03T08:24:27;101513.88;;;29.84;39.32
61528;BME280;47395;42.032;-8.634;2022-10-03T08:29:52;101514.66;;;30.08;38.78
61528;BME280;47395;42.032;-8.634;2022-10-03T08:44:00;101524.72;;;33.53;33.51
61528;BME280;47395;42.032;-8.634;2022-10-03T08:55:23;101536.53;;;34.60;30.61
61528;BME280;47395;42.032;-8.634;2022-10-03T09:00:48;101535.34;;;35.34;29.49
61528;BME280;47395;42.032;-8.634;2022-10-03T09:03:34;101528.38;;;35.38;29.97
61528;BME280;47395;42.032;-8.634;2022-10-03T09:16:28;101533.53;;;36.41;27.38
61528;BME280;47395;42.032;-8.634;2022-10-03T09:21:51;101541.44;;;36.99;27.46
61528;BME280;47395;42.032;-8.634;2022-10-03T09:30:03;101539.22;;;37.63;25.33
61528;BME280;47395;42.032;-8.634;2022-10-03T09:37:13;101543.28;;;38.20;25.32
61528;BME280;47395;42.032;-8.634;2022-10-03T09:42:52;101547.94;;;38.31;24.82
61528;BME280;47395;42.032;-8.634;2022-10-03T09:51:32;101541.91;;;38.58;24.94
61528;BME280;47395;42.032;-8.634;2022-10-03T09:54:23;101538.25;;;38.99;25.44
61528;BME280;47395;42.032;-8.634;2022-10-03T10:01:01;101528.03;;;39.11;25.42
61528;BME280;47395;42.032;-8.634;2022-10-03T10:03:49;101527.00;;;39.17;25.75
61528;BME280;47395;42.032;-8.634;2022-10-03T10:09:52;101523.69;;;38.57;25.38
61528;BME280;47395;42.032;-8.634;2022-10-03T10:11:52;101522.25;;;38.13;26.41
61528;BME280;47395;42.032;-8.634;2022-10-03T10:17:00;101524.28;;;38.88;26.04
61528;BME280;47395;42.032;-8.634;2022-10-03T10:19:46;101524.41;;;39.11;25.04
61528;BME280;47395;42.032;-8.634;2022-10-03T10:25:00;101524.66;;;37.74;27.84
61528;BME280;47395;42.032;-8.634;2022-10-03T10:27:46;101524.28;;;38.59;26.80
61528;BME280;47395;42.032;-8.634;2022-10-03T10:33:08;101517.34;;;40.06;23.68
61528;BME280;47395;42.032;-8.634;2022-10-03T10:35:58;101520.75;;;39.39;24.58
61528;BME280;47395;42.032;-8.634;2022-10-03T10:38:25;101515.69;;;40.27;23.03
61528;BME280;47395;42.032;-8.634;2022-10-03T10:46:21;101514.94;;;39.19;25.51
61528;BME280;47395;42.032;-8.634;2022-10-03T10:48:55;101514.84;;;40.27;23.32
61528;BME280;47395;42.032;-8.634;2022-10-03T10:51:38;101519.34;;;40.55;23.53
61528;BME280;47395;42.032;-8.634;2022-10-03T11:08:22;101513.50;;;40.79;22.51
61528;BME280;47395;42.032;-8.634;2022-10-03T11:10:42;101514.88;;;41.37;21.78
61528;BME280;47395;42.032;-8.634;2022-10-03T11:16:29;101508.38;;;40.16;23.11
61528;BME280;47395;42.032;-8.634;2022-10-03T11:23:41;101508.16;;;40.67;24.37
61528;BME280;47395;42.032;-8.634;2022-10-03T11:38:26;101497.00;;;41.50;21.76
61528;BME280;47395;42.032;-8.634;2022-10-03T11:40:37;101502.41;;;41.02;23.63
61528;BME280;47395;42.032;-8.634;2022-10-03T11:42:55;101489.97;;;40.71;23.25
61528;BME280;47395;42.032;-8.634;2022-10-03T11:45:00;101491.50;;;40.12;24.09
61528;BME280;47395;42.032;-8.634;2022-10-03T11:50:49;101493.50;;;42.19;21.33
61528;BME280;47395;42.032;-8.634;2022-10-03T11:56:35;101481.72;;;41.42;23.46
61528;BME280;47395;42.032;-8.634;2022-10-03T12:03:29;101478.41;;;43.46;19.63
61528;BME280;47395;42.032;-8.634;2022-10-03T12:05:49;101473.13;;;42.61;20.32
61528;BME280;47395;42.032;-8.634;2022-10-03T12:08:29;101472.06;;;41.45;21.48
61528;BME280;47395;42.032;-8.634;2022-10-03T12:13:33;101460.38;;;40.67;23.00
61528;BME280;47395;42.032;-8.634;2022-10-03T12:15:55;101464.94;;;41.54;22.81
61528;BME280;47395;42.032;-8.634;2022-10-03T12:18:13;101457.13;;;41.08;22.64
61528;BME280;47395;42.032;-8.634;2022-10-03T12:20:29;101457.31;;;40.68;22.68
61528;BME280;47395;42.032;-8.634;2022-10-03T12:22:44;101467.28;;;40.97;21.67
61528;BME280;47395;42.032;-8.634;2022-10-03T12:24:49;101467.03;;;41.80;21.92
61528;BME280;47395;42.032;-8.634;2022-10-03T12:27:11;101465.38;;;41.84;20.35
61528;BME280;47395;42.032;-8.634;2022-10-03T12:29:18;101467.00;;;42.59;20.17
61528;BME280;47395;42.032;-8.634;2022-10-03T12:31:30;101469.53;;;42.66;20.47
61528;BME280;47395;42.032;-8.634;2022-10-03T12:37:56;101457.63;;;41.81;21.21
61528;BME280;47395;42.032;-8.634;2022-10-03T12:40:20;101465.19;;;41.96;19.92
61528;BME280;47395;42.032;-8.634;2022-10-03T12:45:22;101449.88;;;42.94;19.53
61528;BME280;47395;42.032;-8.634;2022-10-03T12:48:33;101453.97;;;42.54;17.95
61528;BME280;47395;42.032;-8.634;2022-10-03T12:50:51;101443.50;;;43.19;17.92
61528;BME280;47395;42.032;-8.634;2022-10-03T12:55:36;101446.81;;;41.74;18.97
61528;BME280;47395;42.032;-8.634;2022-10-03T12:57:47;101440.66;;;39.29;19.71
61528;BME280;47395;42.032;-8.634;2022-10-03T13:05:33;101428.44;;;40.26;20.21
61528;BME280;47395;42.032;-8.634;2022-10-03T13:10:48;101430.78;;;40.40;19.89
61528;BME280;47395;42.032;-8.634;2022-10-03T13:16:02;101426.44;;;38.69;21.48
61528;BME280;47395;42.032;-8.634;2022-10-03T13:18:28;101418.19;;;40.22;19.73
61528;BME280;47395;42.032;-8.634;2022-10-03T13:20:36;101432.47;;;39.34;20.45
61528;BME280;47395;42.032;-8.634;2022-10-03T13:22:44;101421.66;;;39.10;20.85
61528;BME280;47395;42.032;-8.634;2022-10-03T13:25:27;101418.75;;;39.79;21.12
61528;BME280;47395;42.032;-8.634;2022-10-03T13:27:33;101415.13;;;38.99;21.27
61528;BME280;47395;42.032;-8.634;2022-10-03T13:29:43;101419.38;;;38.03;22.85
61528;BME280;47395;42.032;-8.634;2022-10-03T13:32:51;101419.09;;;37.39;24.32
61528;BME280;47395;42.032;-8.634;2022-10-03T13:34:27;101419.75;;;36.25;24.57
61528;BME280;47395;42.032;-8.634;2022-10-03T13:36:37;101417.97;;;36.92;25.13
61528;BME280;47395;42.032;-8.634;2022-10-03T13:41:42;101412.66;;;36.17;24.51
61528;BME280;47395;42.032;-8.634;2022-10-03T13:44:02;101405.91;;;36.51;25.56
61528;BME280;47395;42.032;-8.634;2022-10-03T13:46:58;101405.19;;;36.55;24.32
61528;BME280;47395;42.032;-8.634;2022-10-03T13:48:39;101406.25;;;36.54;24.53
61528;BME280;47395;42.032;-8.634;2022-10-03T13:51:02;101406.78;;;36.63;24.35
61528;BME280;47395;42.032;-8.634;2022-10-03T13:53:39;101396.44;;;35.97;23.92
61528;BME280;47395;42.032;-8.634;2022-10-03T13:55:56;101394.94;;;36.51;24.30
61528;BME280;47395;42.032;-8.634;2022-10-03T13:58:14;101393.16;;;36.56;24.27
61528;BME280;47395;42.032;-8.634;2022-10-03T14:00:23;101387.13;;;36.36;23.91
61528;BME280;47395;42.032;-8.634;2022-10-03T14:02:47;101393.91;;;36.33;23.76
61528;BME280;47395;42.032;-8.634;2022-10-03T14:05:06;101403.47;;;36.73;23.89
61528;BME280;47395;42.032;-8.634;2022-10-03T14:07:45;101392.66;;;37.02;23.44
61528;BME280;47395;42.032;-8.634;2022-10-03T14:11:08;101391.00;;;36.58;25.50
61528;BME280;47395;42.032;-8.634;2022-10-03T14:13:03;101392.78;;;36.22;23.70
61528;BME280;47395;42.032;-8.634;2022-10-03T14:15:22;101394.47;;;37.44;22.52
61528;BME280;47395;42.032;-8.634;2022-10-03T14:18:01;101379.88;;;36.23;23.70
61528;BME280;47395;42.032;-8.634;2022-10-03T14:20:41;101381.63;;;36.36;23.38
61528;BME280;47395;42.032;-8.634;2022-10-03T14:25:43;101381.50;;;35.56;21.96
61528;BME280;47395;42.032;-8.634;2022-10-03T14:28:05;101383.81;;;35.14;22.38
61528;BME280;47395;42.032;-8.634;2022-10-03T14:30:55;101386.97;;;35.37;22.91
61528;BME280;47395;42.032;-8.634;2022-10-03T14:33:27;101383.19;;;35.75;23.42
61528;BME280;47395;42.032;-8.634;2022-10-03T14:39:01;101386.03;;;34.99;24.38
61528;BME280;47395;42.032;-8.634;2022-10-03T14:41:05;101383.16;;;34.87;23.05
61528;BME280;47395;42.032;-8.634;2022-10-03T14:45:49;101387.34;;;34.57;24.54
61528;BME280;47395;42.032;-8.634;2022-10-03T14:47:53;101386.53;;;34.89;23.49
61528;BME280;47395;42.032;-8.634;2022-10-03T14:49:58;101390.50;;;34.54;24.12
61528;BME280;47395;42.032;-8.634;2022-10-03T14:54:29;101386.81;;;34.42;24.01
61528;BME280;47395;42.032;-8.634;2022-10-03T14:56:49;101387.53;;;34.95;24.28
61528;BME280;47395;42.032;-8.634;2022-10-03T14:58:54;101386.66;;;34.30;23.44
61528;BME280;47395;42.032;-8.634;2022-10-03T15:01:25;101381.91;;;34.05;22.81
61528;BME280;47395;42.032;-8.634;2022-10-03T15:03:39;101384.88;;;33.96;23.35
61528;BME280;47395;42.032;-8.634;2022-10-03T15:06:21;101386.03;;;33.75;23.86
61528;BME280;47395;42.032;-8.634;2022-10-03T15:08:40;101382.47;;;33.41;24.31
61528;BME280;47395;42.032;-8.634;2022-10-03T15:10:43;101382.88;;;33.44;23.38
61528;BME280;47395;42.032;-8.634;2022-10-03T15:12:48;101386.72;;;33.03;24.25
61528;BME280;47395;42.032;-8.634;2022-10-03T15:15:03;101381.03;;;33.11;24.75
61528;BME280;47395;42.032;-8.634;2022-10-03T15:17:16;101373.44;;;33.33;24.76
61528;BME280;47395;42.032;-8.634;2022-10-03T15:19:23;101383.06;;;32.68;25.00
61528;BME280;47395;42.032;-8.634;2022-10-03T15:21:27;101375.72;;;32.62;25.83
61528;BME280;47395;42.032;-8.634;2022-10-03T15:23:39;101370.91;;;32.64;27.09
61528;BME280;47395;42.032;-8.634;2022-10-03T15:25:43;101365.19;;;32.46;26.75
61528;BME280;47395;42.032;-8.634;2022-10-03T15:27:48;101369.00;;;32.58;26.53
61528;BME280;47395;42.032;-8.634;2022-10-03T15:29:53;101365.22;;;32.52;27.09
61528;BME280;47395;42.032;-8.634;2022-10-03T15:32:22;101356.88;;;31.70;27.61
61528;BME280;47395;42.032;-8.634;2022-10-03T15:34:37;101351.56;;;31.26;28.41
61528;BME280;47395;42.032;-8.634;2022-10-03T15:36:40;101357.25;;;31.31;28.43
61528;BME280;47395;42.032;-8.634;2022-10-03T15:38:48;101352.75;;;31.17;28.37
61528;BME280;47395;42.032;-8.634;2022-10-03T15:40:54;101346.22;;;31.39;28.35
61528;BME280;47395;42.032;-8.634;2022-10-03T15:43:33;101355.72;;;31.22;28.40
61528;BME280;47395;42.032;-8.634;2022-10-03T15:45:36;101357.31;;;30.87;28.39
61528;BME280;47395;42.032;-8.634;2022-10-03T15:47:43;101348.88;;;30.60;28.89
61528;BME280;47395;42.032;-8.634;2022-10-03T15:50:03;101341.69;;;30.53;29.95
61528;BME280;47395;42.032;-8.634;2022-10-03T15:52:55;101347.50;;;30.49;29.80
61528;BME280;47395;42.032;-8.634;2022-10-03T15:55:01;101344.69;;;30.21;30.96
61528;BME280;47395;42.032;-8.634;2022-10-03T15:57:12;101341.41;;;30.26;31.33
61528;BME280;47395;42.032;-8.634;2022-10-03T15:59:21;101329.63;;;30.40;30.52
61528;BME280;47395;42.032;-8.634;2022-10-03T16:01:33;101326.25;;;30.01;30.93
61528;BME280;47395;42.032;-8.634;2022-10-03T16:04:02;101328.97;;;30.01;31.39
61528;BME280;47395;42.032;-8.634;2022-10-03T16:06:16;101343.41;;;29.87;31.89
61528;BME280;47395;42.032;-8.634;2022-10-03T16:08:34;101347.25;;;29.62;33.51
61528;BME280;47395;42.032;-8.634;2022-10-03T16:10:46;101326.91;;;29.43;32.75
61528;BME280;47395;42.032;-8.634;2022-10-03T16:20:52;101346.75;;;28.82;35.86
61528;BME280;47395;42.032;-8.634;2022-10-03T16:22:56;101351.94;;;28.68;35.87
61528;BME280;47395;42.032;-8.634;2022-10-03T16:25:17;101353.16;;;28.65;36.69
61528;BME280;47395;42.032;-8.634;2022-10-03T16:30:16;101352.41;;;28.48;36.84
61528;BME280;47395;42.032;-8.634;2022-10-03T16:32:23;101346.84;;;28.41;37.71
61528;BME280;47395;42.032;-8.634;2022-10-03T16:34:27;101339.41;;;28.44;37.86
61528;BME280;47395;42.032;-8.634;2022-10-03T16:36:32;101344.41;;;28.23;37.54
61528;BME280;47395;42.032;-8.634;2022-10-03T16:38:56;101356.31;;;28.14;38.39
61528;BME280;47395;42.032;-8.634;2022-10-03T16:41:02;101354.31;;;27.99;38.55
61528;BME280;47395;42.032;-8.634;2022-10-03T16:43:04;101357.41;;;27.96;38.59
61528;BME280;47395;42.032;-8.634;2022-10-03T16:45:31;101351.22;;;27.71;38.67
61528;BME280;47395;42.032;-8.634;2022-10-03T16:47:35;101361.88;;;27.64;38.78
61528;BME280;47395;42.032;-8.634;2022-10-03T16:49:54;101364.63;;;27.39;39.01
61528;BME280;47395;42.032;-8.634;2022-10-03T16:52:17;101362.63;;;27.24;39.44
61528;BME280;47395;42.032;-8.634;2022-10-03T16:54:20;101347.06;;;27.10;40.44
61528;BME280;47395;42.032;-8.634;2022-10-03T16:56:32;101363.63;;;27.15;40.52
61528;BME280;47395;42.032;-8.634;2022-10-03T16:58:40;101355.19;;;27.10;40.46
61528;BME280;47395;42.032;-8.634;2022-10-03T17:00:54;101375.66;;;26.96;41.61
61528;BME280;47395;42.032;-8.634;2022-10-03T17:03:21;101375.75;;;26.78;41.81
61528;BME280;47395;42.032;-8.634;2022-10-03T17:05:23;101375.69;;;26.53;41.82
61528;BME280;47395;42.032;-8.634;2022-10-03T17:07:29;101368.75;;;26.50;41.93
61528;BME280;47395;42.032;-8.634;2022-10-03T17:09:47;101372.13;;;26.44;42.93
61528;BME280;47395;42.032;-8.634;2022-10-03T17:11:58;101364.50;;;26.39;43.04
61528;BME280;47395;42.032;-8.634;2022-10-03T17:14:04;101374.31;;;26.32;44.45
61528;BME280;47395;42.032;-8.634;2022-10-03T17:18:42;101382.94;;;26.01;45.30
61528;BME280;47395;42.032;-8.634;2022-10-03T17:20:49;101379.78;;;25.79;46.13
61528;BME280;47395;42.032;-8.634;2022-10-03T17:23:11;101382.94;;;25.48;46.56
61528;BME280;47395;42.032;-8.634;2022-10-03T17:25:40;101384.41;;;25.42;46.84
61528;BME280;47395;42.032;-8.634;2022-10-03T17:27:46;101389.66;;;25.25;47.05
61528;BME280;47395;42.032;-8.634;2022-10-03T17:30:40;101389.06;;;25.13;47.70
61528;BME280;47395;42.032;-8.634;2022-10-03T17:32:38;101383.66;;;24.95;48.02
61528;BME280;47395;42.032;-8.634;2022-10-03T17:35:05;101390.19;;;24.74;48.74
61528;BME280;47395;42.032;-8.634;2022-10-03T17:39:47;101397.94;;;24.31;50.03
61528;BME280;47395;42.032;-8.634;2022-10-03T17:41:58;101396.31;;;24.20;50.18
61528;BME280;47395;42.032;-8.634;2022-10-03T17:46:39;101401.19;;;23.97;50.32
61528;BME280;47395;42.032;-8.634;2022-10-03T17:51:37;101403.13;;;23.67;50.84
61528;BME280;47395;42.032;-8.634;2022-10-03T17:53:45;101401.56;;;23.54;51.39
61528;BME280;47395;42.032;-8.634;2022-10-03T17:55:54;101408.69;;;23.45;51.81
61528;BME280;47395;42.032;-8.634;2022-10-03T17:57:59;101409.50;;;23.46;52.16
61528;BME280;47395;42.032;-8.634;2022-10-03T18:00:16;101418.56;;;23.35;53.00
61528;BME280;47395;42.032;-8.634;2022-10-03T18:03:00;101418.13;;;23.20;53.97
61528;BME280;47395;42.032;-8.634;2022-10-03T18:07:49;101420.63;;;22.82;55.51
61528;BME280;47395;42.032;-8.634;2022-10-03T18:09:53;101424.28;;;22.71;56.35
61528;BME280;47395;42.032;-8.634;2022-10-03T18:12:03;101422.44;;;22.62;56.85
61528;BME280;47395;42.032;-8.634;2022-10-03T18:14:18;101422.09;;;22.45;57.38
61528;BME280;47395;42.032;-8.634;2022-10-03T18:17:02;101424.31;;;22.30;57.86
61528;BME280;47395;42.032;-8.634;2022-10-03T18:19:17;101432.69;;;22.15;58.93
61528;BME280;47395;42.032;-8.634;2022-10-03T18:24:46;101434.44;;;21.95;59.60
61528;BME280;47395;42.032;-8.634;2022-10-03T18:29:54;101437.16;;;21.74;60.70
61528;BME280;47395;42.032;-8.634;2022-10-03T18:32:09;101441.69;;;21.62;61.43
61528;BME280;47395;42.032;-8.634;2022-10-03T18:34:21;101443.97;;;21.45;61.97
61528;BME280;47395;42.032;-8.634;2022-10-03T18:36:27;101445.59;;;21.36;62.31
61528;BME280;47395;42.032;-8.634;2022-10-03T18:38:32;101451.13;;;21.23;62.82
61528;BME280;47395;42.032;-8.634;2022-10-03T18:40:48;101444.84;;;21.13;63.14
61528;BME280;47395;42.032;-8.634;2022-10-03T18:42:49;101450.22;;;21.02;63.49
61528;BME280;47395;42.032;-8.634;2022-10-03T18:44:51;101458.75;;;20.95;63.82
61528;BME280;47395;42.032;-8.634;2022-10-03T18:49:28;101461.66;;;20.81;64.61
61528;BME280;47395;42.032;-8.634;2022-10-03T18:51:40;101470.19;;;20.74;64.74
61528;BME280;47395;42.032;-8.634;2022-10-03T18:56:17;101468.38;;;20.64;65.45
61528;BME280;47395;42.032;-8.634;2022-10-03T18:58:23;101466.94;;;20.59;65.57
61528;BME280;47395;42.032;-8.634;2022-10-03T19:00:27;101471.22;;;20.51;66.46
61528;BME280;47395;42.032;-8.634;2022-10-03T19:02:38;101462.56;;;20.47;66.30
61528;BME280;47395;42.032;-8.634;2022-10-03T19:04:48;101472.31;;;20.48;66.08
61528;BME280;47395;42.032;-8.634;2022-10-03T19:06:52;101469.00;;;20.44;66.34
61528;BME280;47395;42.032;-8.634;2022-10-03T19:08:57;101472.88;;;20.40;65.97
61528;BME280;47395;42.032;-8.634;2022-10-03T19:11:36;101477.16;;;20.31;66.48
61528;BME280;47395;42.032;-8.634;2022-10-03T19:13:43;101477.63;;;20.25;67.40
61528;BME280;47395;42.032;-8.634;2022-10-03T19:16:54;101485.78;;;20.24;67.38
61528;BME280;47395;42.032;-8.634;2022-10-03T19:21:11;101483.81;;;20.14;67.74
61528;BME280;47395;42.032;-8.634;2022-10-03T19:23:24;101486.63;;;20.13;67.75
61528;BME280;47395;42.032;-8.634;2022-10-03T19:25:27;101491.59;;;20.06;68.05
61528;BME280;47395;42.032;-8.634;2022-10-03T19:27:44;101497.41;;;20.00;68.38
61528;BME280;47395;42.032;-8.634;2022-10-03T19:29:53;101498.47;;;19.97;68.52
61528;BME280;47395;42.032;-8.634;2022-10-03T19:33:02;101493.72;;;19.89;69.00
61528;BME280;47395;42.032;-8.634;2022-10-03T19:34:44;101492.72;;;19.79;69.36
61528;BME280;47395;42.032;-8.634;2022-10-03T19:36:49;101495.78;;;19.86;69.10
61528;BME280;47395;42.032;-8.634;2022-10-03T19:38:51;101494.53;;;19.78;69.31
61528;BME280;47395;42.032;-8.634;2022-10-03T19:43:46;101507.16;;;19.76;69.77
61528;BME280;47395;42.032;-8.634;2022-10-03T19:45:53;101507.41;;;19.73;69.79
61528;BME280;47395;42.032;-8.634;2022-10-03T19:48:02;101509.69;;;19.66;70.36
61528;BME280;47395;42.032;-8.634;2022-10-03T19:50:25;101515.38;;;19.62;70.79
61528;BME280;47395;42.032;-8.634;2022-10-03T19:52:28;101524.19;;;19.51;71.17
61528;BME280;47395;42.032;-8.634;2022-10-03T19:54:35;101524.94;;;19.53;71.59
61528;BME280;47395;42.032;-8.634;2022-10-03T19:56:43;101507.44;;;19.49;71.01
61528;BME280;47395;42.032;-8.634;2022-10-03T19:59:14;101520.16;;;19.45;71.53